Council Bluffs, IA

4:51 PM CDT on April 25, 2017 (GMT -0500)
Council Bluffs Municipal

Weather History for KCBF - March, 2013

Change the Weather History Date:

Friday, March 15, 2013

  Actual Average Record
Temperature  
Mean Temperature 45 °F -  
Max Temperature 57 °F 45 °F 80 °F (2003)
Min Temperature 33 °F 28 °F 14 °F (1997)
Degree Days  
Heating Degree Days 20    
Moisture  
Dew Point 38 °F    
Average Humidity 82    
Maximum Humidity 100    
Minimum Humidity 55    
Precipitation  
Precipitation 0.00 in - - ()
Sea Level Pressure  
Sea Level Pressure 29.82 in    
Wind  
Wind Speed 9 mph (NW)    
Max Wind Speed 17 mph    
Max Gust Speed 23 mph    
Visibility 8 miles    
Events      
Averages and records for this station are not official NWS values.
T = Trace of Precipitation, MM = Missing Value Source: NWS Daily Summary

Daily Weather History Graph

Daily Weather History Graph

Search for Another Location

Airport or City:

Trip Planner

Search our weather history database for the weather conditions in past years. The results will help you decide how hot, cold, wet, or windy it might be!

Date:

Astronomy

Mar. 15, 2013 Rise Set
Actual Time 7:34 AM CDT 7:30 PM CDT
Civil Twilight 7:06 AM CDT 7:57 PM CDT
Nautical Twilight 6:34 AM CDT 8:29 PM CDT
Astronomical Twilight 6:02 AM CDT 9:02 PM CDT
Moon 9:22 AM CDT (3/15) 11:48 PM CDT (3/15)
Length of Visible Light 12h 50m
Length of Day
11h 55m
Waxing Crescent, 15% of the Moon is Illuminated
Mar 15
Waxing Crescent
Mar 19
First Quarter
Mar 27
Full
Apr 2
Last Quarter
Apr 10
New

Hourly Weather History & Observations

Time (CDT) Temp. Windchill Dew Point Humidity Pressure Visibility Wind Dir Wind Speed Gust Speed Precip Events Conditions
12:15 AM 39.2 °F 33.6 °F 33.8 °F 81% 30.05 in 10.0 mi SE 8.1 mph - N/A   Clear
12:35 AM 37.4 °F 30.8 °F 33.8 °F 87% 30.05 in 10.0 mi South 9.2 mph - N/A   Clear
12:55 AM 39.2 °F 34.2 °F 33.8 °F 81% 30.05 in 10.0 mi South 6.9 mph - N/A   Clear
1:15 AM 39.2 °F 33.0 °F 35.6 °F 87% 30.04 in 10.0 mi SW 9.2 mph - N/A   Clear
1:35 AM 37.4 °F 32.1 °F 35.6 °F 93% 30.02 in 10.0 mi SSW 6.9 mph - N/A   Scattered Clouds
2:15 AM 39.2 °F 33.6 °F 35.6 °F 87% 30.01 in 9.0 mi SSW 8.1 mph - N/A   Clear
2:35 AM 37.4 °F 32.8 °F 35.6 °F 93% 30.01 in 9.0 mi SSW 5.8 mph - N/A   Clear
2:55 AM 37.4 °F 31.4 °F 35.6 °F 93% 29.99 in 7.0 mi South 8.1 mph - N/A   Clear
3:15 AM 35.6 °F 30.7 °F 35.6 °F 100% 29.98 in 6.0 mi South 5.8 mph - N/A   Clear
3:35 AM 37.4 °F 34.9 °F 35.6 °F 93% 29.97 in 7.0 mi SSW 3.5 mph - N/A   Clear
4:15 AM 35.6 °F 29.2 °F 33.8 °F 93% 29.94 in 7.0 mi SSE 8.1 mph - N/A   Clear
4:35 AM 35.6 °F 28.6 °F 33.8 °F 93% 29.92 in 7.0 mi SSE 9.2 mph - N/A   Clear
4:55 AM 35.6 °F 28.6 °F 33.8 °F 93% 29.92 in 8.0 mi South 9.2 mph - N/A   Clear
5:15 AM 35.6 °F 28.0 °F 35.6 °F 100% 29.91 in 8.0 mi SE 10.4 mph - N/A   Clear
5:35 AM 37.4 °F 30.3 °F 33.8 °F 87% 29.90 in 8.0 mi SE 10.4 mph - N/A   Clear
5:55 AM 35.6 °F 28.0 °F 33.8 °F 93% 29.90 in 8.0 mi SSE 10.4 mph - N/A   Clear
6:15 AM 35.6 °F 28.6 °F 33.8 °F 93% 29.89 in 8.0 mi SSE 9.2 mph - N/A   Clear
6:35 AM 35.6 °F 28.6 °F 33.8 °F 93% 29.88 in 7.0 mi SE 9.2 mph - N/A   Clear
6:55 AM 33.8 °F 26.4 °F 33.8 °F 100% 29.87 in 6.0 mi SE 9.2 mph - N/A   Clear
7:15 AM 35.6 °F 28.0 °F 33.8 °F 93% 29.86 in 6.0 mi SE 10.4 mph - N/A   Clear
7:35 AM 35.6 °F 28.6 °F 33.8 °F 93% 29.85 in 4.0 mi SSE 9.2 mph - N/A   Clear
7:55 AM 35.6 °F 28.6 °F 33.8 °F 93% 29.85 in 4.0 mi SSE 9.2 mph - N/A   Clear
8:15 AM 35.6 °F 28.6 °F 33.8 °F 93% 29.84 in 4.0 mi SE 9.2 mph - N/A   Clear
8:35 AM 35.6 °F 28.6 °F 35.6 °F 100% 29.83 in 5.0 mi SSE 9.2 mph - N/A   Clear
8:55 AM 35.6 °F 28.6 °F 35.6 °F 100% 29.82 in 5.0 mi SSE 9.2 mph - N/A   Clear
9:15 AM 37.4 °F 30.3 °F 35.6 °F 93% 29.81 in 6.0 mi SSE 10.4 mph - N/A   Clear
9:35 AM 39.2 °F 33.6 °F 35.6 °F 87% 29.80 in 6.0 mi SSE 8.1 mph - N/A   Clear
10:55 AM 48.2 °F - 39.2 °F 71% 29.78 in 10.0 mi SW 9.2 mph - N/A   Clear
11:15 AM 48.2 °F - 39.2 °F 71% 29.78 in 10.0 mi North - - N/A   Clear
11:35 AM 50.0 °F - 41.0 °F 71% 29.77 in 10.0 mi WSW 8.1 mph - N/A   Clear
11:55 AM 51.8 °F - 39.2 °F 62% 29.76 in 10.0 mi West 8.1 mph - N/A   Clear
12:15 PM 53.6 °F - 41.0 °F 62% 29.76 in 10.0 mi NW 9.2 mph - N/A   Clear
12:35 PM 55.4 °F - 41.0 °F 58% 29.76 in 10.0 mi NW 8.1 mph - N/A   Clear
12:55 PM 57.2 °F - 41.0 °F 55% 29.75 in 10.0 mi NW 10.4 mph - N/A   Clear
1:15 PM 57.2 °F - 41.0 °F 55% 29.75 in 10.0 mi NW 9.2 mph - N/A   Clear
1:35 PM 57.2 °F - 41.0 °F 55% 29.76 in 10.0 mi NNW 9.2 mph - N/A   Clear
1:55 PM 55.4 °F - 41.0 °F 58% 29.75 in 10.0 mi WNW 5.8 mph - N/A   Clear
2:15 PM 55.4 °F - 41.0 °F 58% 29.74 in 10.0 mi NW 5.8 mph - N/A   Clear
2:35 PM 55.4 °F - 41.0 °F 58% 29.73 in 10.0 mi NNW 6.9 mph - N/A   Clear
2:55 PM 55.4 °F - 42.8 °F 63% 29.72 in 10.0 mi NNW 5.8 mph - N/A   Clear
3:15 PM 55.4 °F - 42.8 °F 63% 29.72 in 10.0 mi NNE 6.9 mph - N/A   Clear
3:35 PM 55.4 °F - 42.8 °F 63% 29.72 in 10.0 mi North 8.1 mph - N/A   Clear
3:55 PM 53.6 °F - 42.8 °F 67% 29.72 in 10.0 mi North 8.1 mph - N/A   Clear
4:15 PM 53.6 °F - 42.8 °F 67% 29.72 in 10.0 mi Variable 6.9 mph - N/A   Clear
4:35 PM 55.4 °F - 42.8 °F 63% 29.73 in 10.0 mi North 9.2 mph - N/A   Clear
4:55 PM 55.4 °F - 44.6 °F 67% 29.73 in 10.0 mi North 6.9 mph - N/A   Clear
5:15 PM 53.6 °F - 44.6 °F 72% 29.72 in 10.0 mi North - - N/A   Clear
5:35 PM 55.4 °F - 44.6 °F 67% 29.72 in 10.0 mi North 8.1 mph - N/A   Clear
5:55 PM 53.6 °F - 44.6 °F 72% 29.72 in 10.0 mi North 8.1 mph - N/A   Clear
6:15 PM 51.8 °F - 44.6 °F 76% 29.71 in 10.0 mi North 8.1 mph - N/A   Clear
6:35 PM 51.8 °F - 44.6 °F 76% 29.72 in 10.0 mi North 5.8 mph - N/A   Clear
6:55 PM 50.0 °F - 42.8 °F 76% 29.72 in 10.0 mi NNW 9.2 mph - N/A   Clear
7:15 PM 48.2 °F - 42.8 °F 82% 29.73 in 9.0 mi NW 8.1 mph - N/A   Clear
7:35 PM 46.4 °F 42.9 °F 42.8 °F 87% 29.73 in 8.0 mi NNW 6.9 mph - N/A   Clear
7:55 PM 44.6 °F 39.7 °F 41.0 °F 87% 29.73 in 9.0 mi NNW 9.2 mph - N/A   Clear
8:15 PM 44.6 °F 39.7 °F 41.0 °F 87% 29.75 in 7.0 mi NNW 9.2 mph - N/A   Clear
8:35 PM 42.8 °F 38.0 °F 39.2 °F 87% 29.76 in 7.0 mi NNW 8.1 mph - N/A   Clear
8:55 PM 41.0 °F 33.9 °F 39.2 °F 93% 29.77 in 7.0 mi NNW 12.7 mph - N/A   Clear
9:15 PM 41.0 °F 34.3 °F 39.2 °F 93% 29.78 in 7.0 mi North 11.5 mph - N/A   Clear
9:35 PM 41.0 °F 33.5 °F 39.2 °F 93% 29.78 in 7.0 mi North 13.8 mph - N/A   Clear
9:55 PM 39.2 °F 30.2 °F 37.4 °F 93% 29.79 in 5.0 mi North 17.3 mph - N/A   Clear
10:15 PM 39.2 °F 30.8 °F 37.4 °F 93% 29.80 in 5.0 mi North 15.0 mph - N/A   Clear
10:35 PM 37.4 °F 28.2 °F 35.6 °F 93% 29.80 in 2.5 mi North 16.1 mph - N/A   Mostly Cloudy
10:55 PM 37.4 °F 28.2 °F 37.4 °F 100% 29.82 in 1.0 mi North 16.1 mph - N/A   Overcast
11:15 PM 37.4 °F 27.8 °F 37.4 °F 100% 29.82 in 1.0 mi North 17.3 mph 23.0 mph N/A   Overcast
11:35 PM 37.4 °F 28.9 °F 37.4 °F 100% 29.82 in 1.5 mi North 13.8 mph 21.9 mph N/A   Overcast
11:55 PM 37.4 °F 29.8 °F 37.4 °F 100% 29.82 in 1.8 mi North 11.5 mph 19.6 mph N/A   Overcast